createdAt,value
2023-01-20T00:00:20.313Z,31.1
2023-01-20T00:05:20.145Z,31.1
2023-01-20T00:10:17.093Z,31.0
2023-01-20T00:15:17.085Z,31.3
2023-01-20T00:20:20.224Z,31.2
2023-01-20T00:25:20.161Z,31.1
2023-01-20T00:30:20.256Z,31.1
2023-01-20T00:35:20.231Z,31.0
2023-01-20T00:40:20.248Z,31.2
2023-01-20T00:45:20.178Z,31.2
2023-01-20T00:50:20.178Z,31.2
2023-01-20T00:55:20.179Z,31.2
2023-01-20T01:00:20.195Z,31.2
2023-01-20T01:05:17.187Z,31.2
2023-01-20T01:10:20.381Z,31.2
2023-01-20T01:15:20.283Z,31.2
2023-01-20T01:20:20.229Z,31.2
2023-01-20T01:25:20.355Z,31.4
2023-01-20T01:30:20.351Z,31.3
2023-01-20T01:35:20.329Z,31.3
2023-01-20T01:40:20.341Z,31.3
2023-01-20T01:45:20.436Z,31.2
2023-01-20T01:50:20.342Z,31.2
2023-01-20T01:55:17.288Z,31.0
2023-01-20T02:00:17.203Z,31.0
2023-01-20T02:05:20.419Z,30.9
2023-01-20T02:10:20.376Z,30.9
2023-01-20T02:15:20.391Z,30.9
2023-01-20T02:20:20.461Z,30.8
2023-01-20T02:25:20.411Z,30.9
2023-01-20T02:30:20.434Z,30.8
2023-01-20T02:35:20.436Z,30.8
2023-01-20T02:40:20.490Z,30.8
2023-01-20T02:45:20.409Z,30.8
2023-01-20T02:50:17.316Z,31.0
2023-01-20T02:55:17.423Z,31.0
2023-01-20T03:00:20.512Z,31.0
2023-01-20T03:05:20.409Z,31.0
2023-01-20T03:10:20.551Z,30.9
2023-01-20T03:15:20.475Z,30.9
2023-01-20T03:20:20.441Z,30.9
2023-01-20T03:25:20.561Z,30.9
2023-01-20T03:30:20.563Z,30.9
2023-01-20T03:35:20.735Z,31.0
2023-01-20T03:40:20.567Z,30.9
2023-01-20T03:45:17.476Z,30.9
2023-01-20T03:50:20.920Z,30.9
2023-01-20T03:55:19.600Z,30.9
2023-01-20T04:00:19.603Z,30.9
2023-01-20T04:05:17.012Z,30.9
2023-01-20T04:10:19.641Z,30.9
2023-01-20T04:15:19.616Z,30.9
2023-01-20T04:20:19.619Z,30.9
2023-01-20T04:25:19.596Z,30.9
2023-01-20T04:30:19.767Z,30.9
2023-01-20T04:35:19.717Z,30.9
2023-01-20T04:40:19.651Z,30.8
2023-01-20T04:45:19.593Z,30.8
2023-01-20T04:50:19.741Z,30.8
2023-01-20T04:55:16.981Z,30.8
2023-01-20T05:00:19.056Z,30.8
2023-01-20T05:05:19.119Z,30.8
2023-01-20T05:10:15.920Z,30.8
2023-01-20T05:15:16.273Z,30.8
2023-01-20T05:20:19.018Z,30.9
2023-01-20T05:25:19.051Z,30.9
2023-01-20T05:30:19.054Z,30.8
2023-01-20T05:35:19.086Z,30.8
2023-01-20T05:40:19.130Z,31.1
2023-01-20T05:45:19.013Z,31.1
2023-01-20T05:50:19.048Z,31.1
2023-01-20T05:55:19.066Z,31.0
2023-01-20T06:00:19.099Z,31.0
2023-01-20T06:05:16.359Z,31.0
2023-01-20T06:10:16.010Z,31.0
2023-01-20T06:15:19.146Z,31.1
2023-01-20T06:20:19.129Z,31.1
2023-01-20T06:25:19.110Z,31.0
2023-01-20T06:30:19.158Z,31.1
2023-01-20T06:35:19.068Z,31.1
2023-01-20T06:40:19.252Z,31.1
2023-01-20T06:45:19.227Z,31.1
2023-01-20T06:50:19.227Z,31.1
2023-01-20T06:55:19.189Z,31.1
2023-01-20T07:00:16.092Z,31.1
2023-01-20T07:05:19.230Z,31.1
2023-01-20T07:10:19.261Z,31.1
2023-01-20T07:15:19.207Z,31.1
2023-01-20T07:20:19.187Z,31.1
2023-01-20T07:30:20.231Z,31.0
2023-01-20T07:35:19.802Z,31.0
2023-01-20T07:40:16.827Z,31.1
2023-01-20T07:45:17.037Z,31.1
2023-01-20T07:50:19.899Z,31.2
2023-01-20T07:55:19.892Z,31.2
2023-01-20T08:00:19.976Z,31.3
2023-01-20T08:05:19.856Z,31.4
2023-01-20T08:10:19.929Z,31.3
2023-01-20T08:15:19.912Z,31.3
2023-01-20T08:20:19.901Z,31.4
2023-01-20T08:25:19.928Z,31.5
2023-01-20T08:30:19.965Z,31.5
2023-01-20T08:35:17.282Z,31.4
2023-01-20T08:40:16.862Z,31.4
2023-01-20T08:45:20.025Z,31.3
2023-01-20T08:50:19.992Z,31.3
2023-01-20T08:55:19.928Z,31.2
2023-01-20T09:00:19.954Z,31.2
2023-01-20T09:05:19.987Z,31.1
2023-01-20T09:10:20.007Z,31.1
2023-01-20T09:15:20.032Z,31.1
2023-01-20T09:20:19.927Z,31.0
2023-01-20T09:25:20.039Z,30.9
2023-01-20T09:30:17.024Z,30.9
2023-01-20T09:35:20.241Z,30.9
2023-01-20T09:40:20.110Z,30.8
2023-01-20T09:45:20.141Z,30.8
2023-01-20T09:50:20.160Z,30.7
2023-01-20T09:55:20.142Z,30.7
2023-01-20T10:00:20.182Z,30.7
2023-01-20T10:05:20.228Z,30.6
2023-01-20T10:10:20.234Z,30.6
2023-01-20T10:15:20.149Z,30.6
2023-01-20T10:20:17.588Z,30.5
2023-01-20T10:25:17.046Z,30.4
2023-01-20T10:30:20.245Z,30.4
2023-01-20T10:35:20.272Z,30.3
2023-01-20T10:40:20.263Z,30.2
2023-01-20T10:45:20.286Z,30.1
2023-01-20T10:50:20.288Z,29.7
2023-01-20T10:55:20.253Z,30.0
2023-01-20T11:00:20.258Z,29.7
2023-01-20T11:05:20.444Z,29.7
2023-01-20T11:10:20.205Z,29.7
2023-01-20T11:15:17.233Z,29.7
2023-01-20T11:20:17.411Z,29.6
2023-01-20T11:25:20.386Z,29.6
2023-01-20T11:30:20.336Z,29.6
2023-01-20T11:35:20.342Z,29.5
2023-01-20T11:40:20.389Z,29.5
2023-01-20T11:45:21.817Z,29.5
2023-01-20T11:50:20.350Z,29.4
2023-01-20T11:55:20.402Z,29.4
2023-01-20T12:00:20.472Z,29.3
2023-01-20T12:05:20.399Z,29.3
2023-01-20T12:10:17.728Z,29.2
2023-01-20T12:15:17.411Z,29.2
2023-01-20T12:20:20.435Z,29.1
2023-01-20T12:25:20.556Z,29.2
2023-01-20T12:30:22.974Z,29.1
2023-01-20T12:35:20.495Z,29.1
2023-01-20T12:40:20.352Z,29.0
2023-01-20T12:45:20.698Z,29.1
2023-01-20T12:50:20.568Z,29.0
2023-01-20T12:55:20.602Z,29.1
2023-01-20T13:00:18.003Z,29.1
2023-01-20T13:05:17.488Z,29.1
2023-01-20T13:10:20.725Z,29.2
2023-01-20T13:15:20.703Z,29.2
2023-01-20T13:20:17.847Z,29.3
2023-01-20T13:25:20.630Z,29.3
2023-01-20T13:30:20.591Z,29.3
2023-01-20T13:35:18.522Z,29.3
2023-01-20T13:40:15.477Z,29.3
2023-01-20T13:45:15.973Z,29.3
2023-01-20T13:50:18.739Z,29.3
2023-01-20T13:55:18.666Z,29.3
2023-01-20T14:00:18.675Z,29.4
2023-01-20T14:05:18.594Z,29.4
2023-01-20T14:10:18.802Z,29.4
2023-01-20T14:15:18.731Z,29.4
2023-01-20T14:20:18.672Z,29.4
2023-01-20T14:25:18.712Z,29.5
2023-01-20T14:30:19.004Z,29.5
2023-01-20T14:35:15.851Z,29.5
2023-01-20T14:40:16.075Z,29.6
2023-01-20T14:45:18.733Z,29.6
2023-01-20T14:50:19.354Z,29.6
2023-01-20T14:55:18.847Z,29.6
2023-01-20T15:00:19.253Z,29.7
2023-01-20T15:05:18.729Z,29.6
2023-01-20T15:10:18.994Z,29.6
2023-01-20T15:15:18.816Z,29.6
2023-01-20T15:20:18.688Z,29.6
2023-01-20T15:25:15.754Z,29.6
2023-01-20T15:30:16.140Z,29.6
2023-01-20T15:35:18.836Z,29.6
2023-01-20T15:40:18.922Z,29.7
2023-01-20T15:45:18.839Z,29.6
2023-01-20T15:50:18.899Z,29.3
2023-01-20T15:55:19.080Z,29.6
2023-01-20T16:00:18.982Z,29.3
2023-01-20T16:05:18.926Z,29.3
2023-01-20T16:10:19.061Z,29.4
2023-01-20T16:15:18.946Z,29.5
2023-01-20T16:20:16.167Z,29.5
2023-01-20T16:25:15.861Z,29.4
2023-01-20T16:30:19.134Z,29.5
2023-01-20T16:35:18.977Z,29.5
2023-01-20T16:40:19.548Z,29.6
2023-01-20T16:45:18.951Z,29.6
2023-01-20T16:50:19.016Z,29.5
2023-01-20T16:55:19.017Z,29.5
2023-01-20T17:00:19.577Z,29.5
2023-01-20T17:05:19.027Z,29.4
2023-01-20T17:10:19.044Z,29.5
2023-01-20T17:15:15.946Z,29.5
2023-01-20T17:20:16.151Z,29.5
2023-01-20T17:25:19.074Z,29.5
2023-01-20T17:30:19.341Z,29.6
2023-01-20T17:35:19.189Z,29.6
2023-01-20T17:40:19.442Z,29.7
2023-01-20T17:45:19.208Z,29.7
2023-01-20T17:50:19.191Z,29.8
2023-01-20T17:55:19.073Z,29.8
2023-01-20T18:00:19.231Z,29.7
2023-01-20T18:05:19.194Z,29.7
2023-01-20T18:10:16.541Z,29.6
2023-01-20T18:15:19.141Z,29.7
2023-01-20T18:20:19.228Z,29.7
2023-01-20T18:25:19.356Z,29.8
2023-01-20T18:30:19.262Z,29.8
2023-01-20T18:35:19.156Z,29.7
2023-01-20T18:40:19.345Z,29.8
2023-01-20T18:45:19.232Z,29.9
2023-01-20T18:50:19.309Z,29.9
2023-01-20T18:55:19.274Z,29.9
2023-01-20T19:00:16.155Z,29.9
2023-01-20T19:05:16.198Z,30.0
2023-01-20T19:10:19.471Z,29.9
2023-01-20T19:15:19.474Z,29.9
2023-01-20T19:20:19.245Z,29.9
2023-01-20T19:25:19.311Z,29.8
2023-01-20T19:30:19.437Z,29.8
2023-01-20T19:35:19.291Z,29.9
2023-01-20T19:40:19.317Z,29.9
2023-01-20T19:45:19.305Z,29.9
2023-01-20T19:50:19.461Z,29.9
2023-01-20T19:55:16.250Z,29.8
2023-01-20T20:00:16.646Z,29.7
2023-01-20T20:05:19.429Z,29.7
2023-01-20T20:10:19.454Z,29.6
2023-01-20T20:15:19.383Z,29.6
2023-01-20T20:20:19.490Z,29.6
2023-01-20T20:25:19.464Z,29.6
2023-01-20T20:30:19.829Z,29.6
2023-01-20T20:35:19.447Z,29.5
2023-01-20T20:40:19.530Z,29.5
2023-01-20T20:45:19.592Z,29.4
2023-01-20T20:50:16.762Z,29.4
2023-01-20T20:55:19.489Z,29.2
2023-01-20T21:00:19.753Z,29.2
2023-01-20T21:05:19.518Z,29.2
2023-01-20T21:10:19.625Z,29.2
2023-01-20T21:15:19.554Z,29.2
2023-01-20T21:20:19.520Z,29.1
2023-01-20T21:25:19.563Z,29.1
2023-01-20T21:30:19.705Z,29.2
2023-01-20T21:35:19.647Z,29.2
2023-01-20T21:40:16.772Z,29.2
2023-01-20T21:45:16.523Z,29.3
2023-01-20T21:50:19.648Z,29.2
2023-01-20T21:55:19.650Z,29.2
2023-01-20T22:00:19.694Z,29.2
2023-01-20T22:05:19.644Z,29.2
2023-01-20T22:10:19.847Z,29.2
2023-01-20T22:15:19.704Z,29.2
2023-01-20T22:20:19.732Z,29.2
2023-01-20T22:25:19.797Z,29.2
2023-01-20T22:30:19.666Z,29.3
2023-01-20T22:35:16.600Z,29.3
2023-01-20T22:40:16.876Z,29.3
2023-01-20T22:45:19.760Z,29.2
2023-01-20T22:50:19.776Z,29.2
2023-01-20T22:55:19.790Z,29.2
2023-01-20T23:00:19.834Z,29.2
2023-01-20T23:05:19.821Z,29.2
2023-01-20T23:10:19.813Z,29.2
2023-01-20T23:15:19.824Z,29.1
2023-01-20T23:20:19.776Z,29.1
2023-01-20T23:25:19.799Z,29.0
2023-01-20T23:30:17.117Z,28.9
2023-01-20T23:35:20.009Z,28.8
2023-01-20T23:40:19.835Z,28.7
2023-01-20T23:45:19.861Z,28.6
2023-01-20T23:50:19.935Z,28.5
2023-01-20T23:55:19.797Z,28.5
